createdAt,value
2019-03-20T00:00:49.281Z,58.53
2019-03-20T00:03:21.494Z,54.13
2019-03-20T00:05:53.282Z,51.93
2019-03-20T00:08:24.741Z,49.83
2019-03-20T00:10:56.057Z,54.20
2019-03-20T00:13:27.547Z,49.13
2019-03-20T00:15:58.872Z,51.15
2019-03-20T00:18:30.449Z,44.37
2019-03-20T00:21:01.711Z,43.53
2019-03-20T00:23:32.833Z,44.20
2019-03-20T00:26:04.011Z,60.63
2019-03-20T00:28:35.428Z,74.80
2019-03-20T00:31:06.614Z,101.10
2019-03-20T00:33:38.033Z,106.57
2019-03-20T00:36:10.674Z,96.92
2019-03-20T00:38:41.969Z,102.83
2019-03-20T00:41:13.197Z,82.83
2019-03-20T00:43:44.429Z,85.63
2019-03-20T00:46:16.115Z,75.93
2019-03-20T00:48:47.366Z,62.60
2019-03-20T00:51:18.604Z,52.67
2019-03-20T00:53:50.059Z,49.15
2019-03-20T00:56:21.545Z,49.88
2019-03-20T00:58:53.937Z,47.90
2019-03-20T01:01:25.181Z,42.23
2019-03-20T01:03:56.436Z,47.40
2019-03-20T01:06:28.730Z,45.75
2019-03-20T01:09:00.157Z,42.00
2019-03-20T01:11:32.297Z,45.90
2019-03-20T01:14:03.458Z,42.20
2019-03-20T01:16:35.107Z,48.80
2019-03-20T01:19:06.330Z,44.55
2019-03-20T01:21:37.705Z,37.03
2019-03-20T01:24:08.852Z,38.67
2019-03-20T01:26:40.848Z,45.08
2019-03-20T01:29:12.287Z,43.30
2019-03-20T01:31:43.840Z,43.45
2019-03-20T01:34:14.949Z,40.17
2019-03-20T01:36:47.131Z,41.05
2019-03-20T01:39:18.304Z,44.50
2019-03-20T01:41:49.702Z,40.23
2019-03-20T01:44:21.133Z,41.88
2019-03-20T01:46:53.372Z,41.33
2019-03-20T01:49:25.615Z,42.45
2019-03-20T01:51:56.841Z,44.65
2019-03-20T01:54:28.353Z,41.30
2019-03-20T01:56:59.841Z,40.77
2019-03-20T01:59:32.328Z,41.40
2019-03-20T02:02:04.203Z,41.00
2019-03-20T02:04:47.041Z,88.97
2019-03-20T02:07:18.515Z,91.47
2019-03-20T02:09:49.617Z,54.03
2019-03-20T02:12:21.259Z,50.67
2019-03-20T02:14:52.396Z,49.25
2019-03-20T02:17:23.941Z,42.83
2019-03-20T02:19:55.214Z,48.70
2019-03-20T02:22:26.463Z,41.33
2019-03-20T02:24:57.809Z,35.90
2019-03-20T02:27:29.056Z,39.00
2019-03-20T02:30:00.435Z,37.63
2019-03-20T02:32:32.288Z,45.65
2019-03-20T02:35:03.463Z,40.63
2019-03-20T02:37:34.969Z,50.43
2019-03-20T02:40:07.760Z,49.65
2019-03-20T02:42:39.964Z,44.53
2019-03-20T02:45:12.987Z,43.00
2019-03-20T02:47:44.717Z,45.45
2019-03-20T02:50:16.082Z,39.63
2019-03-20T02:52:47.609Z,44.20
2019-03-20T02:55:18.674Z,40.08
2019-03-20T02:57:49.861Z,41.70
2019-03-20T03:00:21.896Z,42.70
2019-03-20T03:02:53.899Z,43.28
2019-03-20T03:05:25.544Z,42.85
2019-03-20T03:07:57.664Z,39.25
2019-03-20T03:10:28.695Z,41.83
2019-03-20T03:13:01.032Z,54.70
2019-03-20T03:15:32.224Z,41.50
2019-03-20T03:18:03.564Z,42.33
2019-03-20T03:20:34.586Z,59.80
2019-03-20T03:23:06.337Z,51.68
2019-03-20T03:25:37.527Z,60.70
2019-03-20T03:28:08.988Z,65.08
2019-03-20T03:30:40.122Z,59.73
2019-03-20T03:33:11.358Z,58.48
2019-03-20T03:35:42.623Z,54.70
2019-03-20T03:38:15.078Z,61.18
2019-03-20T03:40:46.998Z,53.23
2019-03-20T03:43:18.828Z,51.35
2019-03-20T03:45:49.930Z,53.70
2019-03-20T03:48:21.245Z,56.18
2019-03-20T03:50:53.776Z,47.60
2019-03-20T03:53:25.065Z,52.93
2019-03-20T03:55:56.189Z,49.73
2019-03-20T03:58:28.836Z,55.17
2019-03-20T04:01:00.229Z,44.10
2019-03-20T04:03:31.632Z,47.10
2019-03-20T04:06:05.994Z,57.80
2019-03-20T04:08:37.143Z,54.73
2019-03-20T04:11:08.317Z,60.98
2019-03-20T04:13:39.670Z,64.65
2019-03-20T04:16:10.653Z,91.57
2019-03-20T04:18:41.976Z,101.27
2019-03-20T04:21:13.185Z,111.05
2019-03-20T04:23:44.310Z,156.55
2019-03-20T04:26:15.765Z,162.18
2019-03-20T04:28:48.286Z,129.63
2019-03-20T04:31:19.452Z,128.53
2019-03-20T04:33:50.661Z,159.97
2019-03-20T04:36:21.898Z,136.95
2019-03-20T04:38:53.190Z,135.97
2019-03-20T04:41:24.265Z,150.40
2019-03-20T04:43:55.452Z,158.72
2019-03-20T04:46:26.466Z,136.22
2019-03-20T04:48:58.744Z,95.22
2019-03-20T04:51:29.898Z,72.35
2019-03-20T04:54:01.279Z,91.10
2019-03-20T04:56:33.351Z,94.87
2019-03-20T04:59:05.220Z,80.93
2019-03-20T05:01:36.420Z,62.27
2019-03-20T05:04:08.814Z,75.40
2019-03-20T05:06:40.022Z,67.63
2019-03-20T05:09:12.172Z,76.50
2019-03-20T05:11:43.413Z,69.13
2019-03-20T05:14:15.587Z,76.93
2019-03-20T05:16:46.642Z,66.27
2019-03-20T05:19:18.304Z,57.60
2019-03-20T05:21:54.498Z,50.57
2019-03-20T05:24:35.724Z,77.37
2019-03-20T05:27:07.049Z,52.30
2019-03-20T05:29:38.417Z,55.07
2019-03-20T05:32:10.513Z,52.83
2019-03-20T05:34:41.678Z,53.97
2019-03-20T05:37:13.782Z,50.00
2019-03-20T05:39:44.995Z,53.00
2019-03-20T05:42:16.507Z,44.57
2019-03-20T05:44:47.772Z,51.03
2019-03-20T05:47:19.053Z,50.93
2019-03-20T05:49:50.404Z,51.87
2019-03-20T05:52:21.479Z,73.00
2019-03-20T05:54:52.647Z,56.47
2019-03-20T05:57:23.629Z,62.10
2019-03-20T05:59:54.831Z,58.70
2019-03-20T06:02:26.211Z,57.10
2019-03-20T06:04:57.768Z,56.37
2019-03-20T06:07:28.731Z,47.43
2019-03-20T06:09:59.875Z,49.33
2019-03-20T06:12:30.883Z,50.27
2019-03-20T06:15:04.155Z,55.07
2019-03-20T06:17:35.346Z,60.27
2019-03-20T06:20:06.865Z,66.63
2019-03-20T06:22:37.899Z,117.90
2019-03-20T06:25:09.597Z,121.33
2019-03-20T06:27:40.617Z,136.90
2019-03-20T06:30:14.831Z,165.13
2019-03-20T06:32:45.965Z,178.00
2019-03-20T06:35:17.417Z,204.17
2019-03-20T06:37:48.363Z,197.63
2019-03-20T06:40:19.632Z,208.97
2019-03-20T06:42:50.778Z,180.03
2019-03-20T06:45:22.130Z,160.03
2019-03-20T06:47:53.592Z,145.10
2019-03-20T06:50:25.688Z,142.27
2019-03-20T06:52:57.859Z,146.60
2019-03-20T06:55:29.113Z,139.03
2019-03-20T06:58:01.637Z,131.17
2019-03-20T07:01:06.764Z,100.00
2019-03-20T07:04:27.699Z,95.80
2019-03-20T07:07:15.463Z,91.03
2019-03-20T07:10:09.741Z,90.03
2019-03-20T07:12:40.892Z,74.60
2019-03-20T07:15:12.530Z,86.43
2019-03-20T07:17:43.649Z,69.03
2019-03-20T07:20:14.905Z,59.90
2019-03-20T07:22:45.923Z,61.53
2019-03-20T07:25:17.019Z,56.23
2019-03-20T07:27:48.152Z,57.73
2019-03-20T07:30:19.285Z,52.47
2019-03-20T07:32:50.229Z,58.73
2019-03-20T07:35:21.327Z,50.70
2019-03-20T07:37:56.227Z,43.27
2019-03-20T07:40:25.002Z,56.60
2019-03-20T07:42:56.250Z,36.53
2019-03-20T07:45:27.587Z,40.50
2019-03-20T07:47:59.519Z,35.33
2019-03-20T07:50:30.593Z,37.37
2019-03-20T07:53:02.892Z,33.57
2019-03-20T07:55:35.008Z,34.13
2019-03-20T07:58:06.698Z,32.53
2019-03-20T08:00:37.826Z,41.50
2019-03-20T08:03:08.806Z,39.00
2019-03-20T08:05:39.944Z,37.07
2019-03-20T08:08:12.671Z,38.60
2019-03-20T08:10:43.772Z,34.43
2019-03-20T08:13:15.917Z,39.87
2019-03-20T08:15:46.826Z,38.83
2019-03-20T08:18:19.039Z,44.37
2019-03-20T08:20:50.043Z,34.77
2019-03-20T08:23:21.487Z,40.90
2019-03-20T08:25:52.518Z,44.03
2019-03-20T08:28:23.604Z,35.97
2019-03-20T08:30:55.920Z,41.97
2019-03-20T08:33:27.089Z,37.50
2019-03-20T08:35:58.327Z,35.73
2019-03-20T08:38:29.587Z,39.20
2019-03-20T08:41:00.757Z,44.33
2019-03-20T08:43:32.960Z,39.90
2019-03-20T08:46:04.009Z,48.37
2019-03-20T08:48:35.246Z,42.97
2019-03-20T08:51:06.529Z,45.70
2019-03-20T08:53:37.855Z,48.97
2019-03-20T08:56:09.131Z,47.20
2019-03-20T08:58:40.339Z,44.87
2019-03-20T09:01:11.576Z,48.83
2019-03-20T09:03:42.755Z,51.23
2019-03-20T09:06:14.725Z,44.17
2019-03-20T09:08:45.691Z,49.33
2019-03-20T09:11:16.799Z,42.67
2019-03-20T09:13:47.932Z,53.03
2019-03-20T09:16:19.055Z,55.77
2019-03-20T09:18:50.104Z,49.80
2019-03-20T09:21:21.330Z,50.17
2019-03-20T09:23:52.412Z,55.40
2019-03-20T09:26:23.604Z,54.53
2019-03-20T09:28:54.727Z,48.70
2019-03-20T09:31:26.342Z,51.77
2019-03-20T09:33:57.426Z,45.43
2019-03-20T09:36:29.362Z,52.40
2019-03-20T09:39:00.548Z,50.97
2019-03-20T09:41:33.088Z,51.73
2019-03-20T09:44:04.219Z,52.83
2019-03-20T09:46:35.121Z,54.80
2019-03-20T09:49:06.383Z,44.97
2019-03-20T09:51:37.326Z,41.80
2019-03-20T09:54:08.410Z,53.60
2019-03-20T09:56:40.874Z,49.00
2019-03-20T09:59:11.939Z,45.73
2019-03-20T10:01:42.936Z,45.47
2019-03-20T10:04:14.388Z,47.50
2019-03-20T10:06:46.246Z,44.00
2019-03-20T10:09:17.452Z,48.43
2019-03-20T10:11:48.459Z,44.50
2019-03-20T10:14:19.447Z,45.27
2019-03-20T10:16:51.533Z,46.43
2019-03-20T10:19:22.601Z,45.13
2019-03-20T10:21:54.727Z,46.67
2019-03-20T10:24:25.847Z,54.07
2019-03-20T10:26:58.080Z,41.70
2019-03-20T10:29:29.223Z,39.77
2019-03-20T10:32:00.364Z,39.53
2019-03-20T10:34:39.231Z,42.93
2019-03-20T10:37:04.962Z,42.33
2019-03-20T10:39:37.237Z,41.47
2019-03-20T10:42:08.476Z,66.20
2019-03-20T10:44:39.643Z,42.80
2019-03-20T10:47:11.739Z,36.83
2019-03-20T10:49:43.136Z,42.53
2019-03-20T10:52:14.342Z,35.43
2019-03-20T10:54:45.721Z,34.53
2019-03-20T10:57:16.948Z,33.40
2019-03-20T10:59:48.177Z,34.03
2019-03-20T11:02:20.218Z,36.57
2019-03-20T11:04:52.594Z,34.47
2019-03-20T11:07:23.642Z,32.60
2019-03-20T11:09:54.653Z,33.83
2019-03-20T11:12:25.786Z,29.07
2019-03-20T11:14:56.890Z,33.13
2019-03-20T11:17:27.853Z,31.73
2019-03-20T11:19:59.023Z,35.57
2019-03-20T11:22:31.100Z,28.57
2019-03-20T11:25:02.269Z,31.23
2019-03-20T11:27:33.987Z,27.70
2019-03-20T11:30:24.554Z,33.80
2019-03-20T11:32:55.672Z,39.20
2019-03-20T11:35:27.075Z,30.57
2019-03-20T11:37:58.439Z,32.57
2019-03-20T11:40:30.532Z,30.57
2019-03-20T11:43:04.074Z,32.53
2019-03-20T11:45:35.529Z,32.37
2019-03-20T11:48:07.373Z,42.03
2019-03-20T11:50:40.197Z,31.97
2019-03-20T11:53:12.026Z,28.57
2019-03-20T11:55:43.834Z,30.97
2019-03-20T11:58:14.996Z,25.10
2019-03-20T12:00:46.117Z,31.47
2019-03-20T12:03:17.448Z,29.50
2019-03-20T12:05:48.736Z,29.40
2019-03-20T12:08:21.284Z,29.10
2019-03-20T12:10:52.704Z,34.03
2019-03-20T12:13:24.234Z,26.27
2019-03-20T12:15:55.383Z,26.73
2019-03-20T12:18:26.534Z,27.90
2019-03-20T12:20:57.668Z,24.50
2019-03-20T12:23:29.483Z,29.17
2019-03-20T12:26:00.874Z,31.83
2019-03-20T12:28:32.160Z,29.77
2019-03-20T12:31:03.308Z,24.73
2019-03-20T12:33:34.444Z,32.27
2019-03-20T12:36:05.634Z,36.67
2019-03-20T12:38:36.699Z,33.43
2019-03-20T12:41:07.940Z,29.67
2019-03-20T12:43:39.236Z,30.20
2019-03-20T12:46:10.469Z,28.70
2019-03-20T12:48:41.545Z,34.97
2019-03-20T12:51:12.655Z,26.87
2019-03-20T12:53:43.810Z,29.13
2019-03-20T12:56:14.723Z,28.60
2019-03-20T12:58:46.226Z,25.50
2019-03-20T13:01:17.908Z,27.30
2019-03-20T13:03:49.606Z,25.97
2019-03-20T13:06:20.978Z,29.23
2019-03-20T13:08:52.121Z,27.23
2019-03-20T13:11:23.491Z,24.53
2019-03-20T13:13:54.779Z,24.20
2019-03-20T13:16:25.848Z,28.40
2019-03-20T13:18:57.025Z,26.27
2019-03-20T13:21:28.988Z,28.80
2019-03-20T13:24:00.703Z,26.87
2019-03-20T13:26:31.706Z,33.87
2019-03-20T13:29:02.729Z,22.50
2019-03-20T13:31:34.251Z,23.60
2019-03-20T13:34:05.291Z,35.50
2019-03-20T13:36:36.402Z,33.13
2019-03-20T13:39:08.932Z,29.30
2019-03-20T13:41:40.050Z,28.97
2019-03-20T13:44:11.180Z,29.80
2019-03-20T13:46:42.568Z,30.63
2019-03-20T13:49:14.104Z,29.53
2019-03-20T13:52:04.381Z,27.07
2019-03-20T13:54:35.536Z,28.23
2019-03-20T13:57:06.749Z,23.30
2019-03-20T13:59:38.992Z,27.17
2019-03-20T14:02:10.104Z,26.23
2019-03-20T14:04:41.840Z,23.73
2019-03-20T14:07:13.188Z,29.63
2019-03-20T14:09:45.559Z,42.37
2019-03-20T14:12:17.008Z,28.00
2019-03-20T14:14:49.039Z,26.13
2019-03-20T14:17:20.851Z,27.40
2019-03-20T14:19:52.165Z,28.00
2019-03-20T14:22:34.991Z,24.60
2019-03-20T14:25:06.635Z,29.73
2019-03-20T14:27:37.650Z,22.67
2019-03-20T14:30:12.499Z,19.73
2019-03-20T14:32:43.536Z,26.13
2019-03-20T14:35:14.702Z,20.93
2019-03-20T14:37:45.830Z,24.43
2019-03-20T14:40:17.874Z,26.30
2019-03-20T14:42:49.259Z,24.23
2019-03-20T14:45:20.512Z,18.93
2019-03-20T14:47:51.809Z,25.43
2019-03-20T14:50:25.384Z,26.33
2019-03-20T14:52:56.671Z,33.20
2019-03-20T14:55:27.885Z,23.27
2019-03-20T14:58:00.374Z,25.43
2019-03-20T15:00:31.554Z,20.00
2019-03-20T15:03:02.945Z,22.57
2019-03-20T15:05:34.224Z,35.77
2019-03-20T15:08:17.076Z,28.67
2019-03-20T15:10:48.388Z,27.33
2019-03-20T15:13:20.676Z,35.50
2019-03-20T15:15:56.224Z,27.27
2019-03-20T15:18:27.426Z,30.80
2019-03-20T15:20:58.502Z,30.93
2019-03-20T15:23:29.538Z,27.20
2019-03-20T15:26:00.803Z,29.07
2019-03-20T15:28:33.163Z,25.23
2019-03-20T15:31:04.378Z,28.10
2019-03-20T15:33:35.534Z,36.50
2019-03-20T15:36:06.907Z,33.33
2019-03-20T15:38:38.499Z,28.27
2019-03-20T15:41:09.733Z,39.70
2019-03-20T15:43:41.733Z,37.70
2019-03-20T15:46:12.853Z,39.93
2019-03-20T15:48:44.209Z,31.40
2019-03-20T15:51:15.647Z,29.40
2019-03-20T15:53:47.720Z,34.10
2019-03-20T15:56:18.921Z,31.47
2019-03-20T15:58:50.032Z,27.93
2019-03-20T16:01:21.255Z,28.60
2019-03-20T16:03:52.419Z,23.10
2019-03-20T16:06:24.696Z,38.77
2019-03-20T16:08:56.942Z,35.60
2019-03-20T16:11:28.322Z,35.57
2019-03-20T16:13:59.384Z,31.80
2019-03-20T16:16:30.427Z,34.57
2019-03-20T16:19:01.567Z,52.40
2019-03-20T16:21:33.727Z,49.67
2019-03-20T16:24:06.022Z,75.73
2019-03-20T16:26:37.242Z,65.10
2019-03-20T16:29:08.207Z,64.60
2019-03-20T16:31:39.382Z,47.30
2019-03-20T16:34:10.395Z,45.23
2019-03-20T16:36:42.067Z,35.53
2019-03-20T16:39:13.234Z,33.53
2019-03-20T16:41:44.808Z,41.70
2019-03-20T16:44:15.981Z,40.87
2019-03-20T16:46:47.079Z,40.00
2019-03-20T16:49:18.131Z,44.50
2019-03-20T16:51:49.289Z,42.67
2019-03-20T16:54:20.360Z,46.37
2019-03-20T16:56:51.845Z,46.13
2019-03-20T16:59:22.933Z,48.63
2019-03-20T17:01:53.978Z,41.43
2019-03-20T17:04:25.128Z,40.90
2019-03-20T17:06:57.887Z,61.47
2019-03-20T17:09:32.785Z,49.27
2019-03-20T17:12:04.510Z,50.03
2019-03-20T17:14:35.699Z,49.43
2019-03-20T17:17:07.071Z,57.27
2019-03-20T17:19:39.136Z,50.77
2019-03-20T17:22:12.534Z,87.23
2019-03-20T17:24:44.652Z,74.53
2019-03-20T17:27:15.814Z,87.03
2019-03-20T17:29:47.853Z,66.03
2019-03-20T17:32:19.151Z,42.63
2019-03-20T17:34:50.273Z,73.37
2019-03-20T17:37:21.724Z,49.93
2019-03-20T17:39:52.936Z,55.60
2019-03-20T17:42:24.162Z,37.23
2019-03-20T17:44:55.297Z,39.70
2019-03-20T17:47:26.352Z,32.27
2019-03-20T17:49:57.564Z,43.23
2019-03-20T17:52:28.806Z,34.03
2019-03-20T17:55:01.903Z,34.83
2019-03-20T17:57:35.003Z,34.70
2019-03-20T18:00:08.777Z,33.30
2019-03-20T18:02:39.994Z,37.13
2019-03-20T18:05:11.185Z,34.63
2019-03-20T18:07:42.393Z,40.20
2019-03-20T18:10:14.106Z,35.87
2019-03-20T18:12:45.332Z,35.80
2019-03-20T18:15:17.487Z,36.33
2019-03-20T18:17:48.757Z,34.40
2019-03-20T18:20:20.075Z,29.10
2019-03-20T18:22:51.445Z,30.00
2019-03-20T18:25:23.429Z,34.20
2019-03-20T18:27:55.883Z,34.07
2019-03-20T18:30:27.283Z,38.73
2019-03-20T18:32:58.962Z,31.97
2019-03-20T18:35:30.784Z,35.30
2019-03-20T18:38:02.663Z,42.57
2019-03-20T18:40:34.526Z,39.03
2019-03-20T18:43:06.567Z,35.53
2019-03-20T18:45:37.836Z,45.20
2019-03-20T18:48:09.158Z,39.00
2019-03-20T18:50:40.835Z,36.83
2019-03-20T18:53:12.187Z,40.43
2019-03-20T18:55:44.425Z,36.63
2019-03-20T18:58:15.699Z,42.33
2019-03-20T19:00:47.201Z,44.90
2019-03-20T19:03:18.892Z,37.70
2019-03-20T19:05:57.319Z,42.43
2019-03-20T19:08:29.242Z,45.67
2019-03-20T19:11:01.449Z,44.20
2019-03-20T19:13:33.353Z,40.50
2019-03-20T19:16:05.826Z,39.93
2019-03-20T19:18:37.593Z,40.57
2019-03-20T19:21:09.275Z,61.27
2019-03-20T19:23:41.996Z,42.17
2019-03-20T19:26:15.344Z,54.70
2019-03-20T19:28:46.538Z,58.33
2019-03-20T19:31:18.120Z,108.17
2019-03-20T19:33:49.701Z,112.23
2019-03-20T19:36:21.081Z,81.77
2019-03-20T19:38:52.809Z,98.03
2019-03-20T19:41:24.426Z,80.90
2019-03-20T19:43:55.925Z,51.70
2019-03-20T19:46:28.143Z,64.80
2019-03-20T19:48:59.404Z,43.97
2019-03-20T19:51:31.070Z,53.73
2019-03-20T19:54:02.783Z,42.30
2019-03-20T19:56:34.277Z,49.13
2019-03-20T19:59:05.858Z,53.27
2019-03-20T20:01:36.903Z,49.80
2019-03-20T20:04:08.443Z,40.17
2019-03-20T20:06:39.860Z,52.87
2019-03-20T20:09:11.283Z,51.37
2019-03-20T20:11:42.807Z,41.93
2019-03-20T20:14:14.205Z,38.57
2019-03-20T20:16:45.307Z,57.07
2019-03-20T20:19:16.676Z,46.80
2019-03-20T20:21:54.911Z,44.67
2019-03-20T20:24:27.314Z,48.13
2019-03-20T20:27:01.724Z,49.53
2019-03-20T20:29:33.374Z,48.17
2019-03-20T20:32:05.443Z,55.73
2019-03-20T20:34:36.577Z,46.10
2019-03-20T20:37:07.777Z,44.53
2019-03-20T20:39:38.959Z,57.30
2019-03-20T20:42:10.699Z,50.13
2019-03-20T20:44:41.866Z,89.63
2019-03-20T20:47:13.026Z,68.60
2019-03-20T20:49:44.257Z,63.67
2019-03-20T20:52:19.707Z,60.33
2019-03-20T20:54:48.086Z,50.23
2019-03-20T20:57:19.595Z,54.80
2019-03-20T20:59:50.787Z,44.57
2019-03-20T21:02:21.719Z,56.63
2019-03-20T21:04:52.783Z,51.27
2019-03-20T21:07:26.482Z,54.87
2019-03-20T21:09:56.739Z,54.27
2019-03-20T21:12:28.047Z,63.47
2019-03-20T21:14:59.290Z,62.88
2019-03-20T21:17:48.466Z,61.00
2019-03-20T21:20:22.244Z,64.27
2019-03-20T21:23:45.875Z,69.63
2019-03-20T21:26:17.792Z,63.80
2019-03-20T21:29:25.369Z,63.08
2019-03-20T21:32:03.033Z,64.77
2019-03-20T21:35:09.673Z,82.40
2019-03-20T21:38:08.255Z,68.62
2019-03-20T21:41:18.440Z,68.72
2019-03-20T21:44:03.434Z,52.43
2019-03-20T21:47:18.068Z,54.08
2019-03-20T21:50:02.292Z,50.12
2019-03-20T21:52:34.209Z,57.13
2019-03-20T21:55:49.547Z,48.13
2019-03-20T21:58:27.121Z,53.40
2019-03-20T22:01:35.328Z,43.48
2019-03-20T22:04:07.704Z,45.70
2019-03-20T22:07:22.579Z,49.95
2019-03-20T22:10:33.418Z,46.37
2019-03-20T22:13:27.852Z,53.78
2019-03-20T22:16:51.303Z,57.80
2019-03-20T22:19:50.700Z,52.90
2019-03-20T22:23:04.054Z,54.48
2019-03-20T22:26:11.549Z,58.42
2019-03-20T22:29:23.635Z,64.77
2019-03-20T22:32:30.199Z,80.17
2019-03-20T22:35:43.540Z,98.17
2019-03-20T22:38:45.237Z,77.25
2019-03-20T22:42:27.828Z,71.40
2019-03-20T22:45:39.468Z,72.15
2019-03-20T22:48:48.892Z,53.15
2019-03-20T22:51:52.159Z,46.92
2019-03-20T22:54:59.932Z,41.90
2019-03-20T22:57:37.976Z,46.23
2019-03-20T23:00:10.880Z,45.43
2019-03-20T23:02:59.057Z,56.40
2019-03-20T23:05:31.298Z,74.05
2019-03-20T23:08:13.183Z,73.52
2019-03-20T23:10:45.425Z,73.72
2019-03-20T23:13:19.199Z,72.42
2019-03-20T23:15:50.708Z,77.12
2019-03-20T23:18:22.593Z,67.60
2019-03-20T23:20:55.235Z,75.90
2019-03-20T23:23:26.865Z,60.40
2019-03-20T23:25:58.434Z,52.40
2019-03-20T23:28:30.411Z,52.20
2019-03-20T23:31:02.091Z,85.03
2019-03-20T23:33:33.682Z,90.20
2019-03-20T23:36:05.472Z,63.17
2019-03-20T23:38:37.219Z,57.17
2019-03-20T23:41:09.055Z,59.55
2019-03-20T23:43:52.136Z,80.42
2019-03-20T23:46:14.744Z,70.67
2019-03-20T23:48:50.844Z,75.10
2019-03-20T23:51:23.382Z,80.95
2019-03-20T23:53:56.646Z,75.97
2019-03-20T23:56:30.078Z,77.25
2019-03-20T23:59:01.857Z,75.90
